sensor_id;sensor_type;location;lat;lon;timestamp;temperature;humidity
1786;DHT22;890;48.158;11.540;2023-06-22T00:00:53;22.90;71.80
1786;DHT22;890;48.158;11.540;2023-06-22T00:03:20;22.90;72.00
1786;DHT22;890;48.158;11.540;2023-06-22T00:05:47;23.00;72.10
1786;DHT22;890;48.158;11.540;2023-06-22T00:08:12;22.90;72.10
1786;DHT22;890;48.158;11.540;2023-06-22T00:10:38;22.90;72.20
1786;DHT22;890;48.158;11.540;2023-06-22T00:13:05;22.90;72.30
1786;DHT22;890;48.158;11.540;2023-06-22T00:15:31;22.80;72.20
1786;DHT22;890;48.158;11.540;2023-06-22T00:17:56;22.80;72.30
1786;DHT22;890;48.158;11.540;2023-06-22T00:20:23;22.80;72.50
1786;DHT22;890;48.158;11.540;2023-06-22T00:22:53;22.70;72.60
1786;DHT22;890;48.158;11.540;2023-06-22T00:25:19;22.60;72.60
1786;DHT22;890;48.158;11.540;2023-06-22T00:27:44;22.60;72.70
1786;DHT22;890;48.158;11.540;2023-06-22T00:30:10;22.70;72.70
1786;DHT22;890;48.158;11.540;2023-06-22T00:32:36;22.60;72.70
1786;DHT22;890;48.158;11.540;2023-06-22T00:35:02;22.60;72.80
1786;DHT22;890;48.158;11.540;2023-06-22T00:37:27;22.50;72.90
1786;DHT22;890;48.158;11.540;2023-06-22T00:39:55;22.40;72.90
1786;DHT22;890;48.158;11.540;2023-06-22T00:42:20;22.40;73.10
1786;DHT22;890;48.158;11.540;2023-06-22T00:44:46;22.40;73.20
1786;DHT22;890;48.158;11.540;2023-06-22T00:47:14;22.40;73.30
1786;DHT22;890;48.158;11.540;2023-06-22T00:49:41;22.30;73.40
1786;DHT22;890;48.158;11.540;2023-06-22T00:52:07;22.20;73.40
1786;DHT22;890;48.158;11.540;2023-06-22T00:54:37;22.30;73.60
1786;DHT22;890;48.158;11.540;2023-06-22T00:57:03;22.20;73.70
1786;DHT22;890;48.158;11.540;2023-06-22T00:59:29;22.20;73.70
1786;DHT22;890;48.158;11.540;2023-06-22T01:01:55;22.30;73.80
1786;DHT22;890;48.158;11.540;2023-06-22T01:04:25;22.20;73.80
1786;DHT22;890;48.158;11.540;2023-06-22T01:07:21;22.20;73.90
1786;DHT22;890;48.158;11.540;2023-06-22T01:12:19;22.10;73.80
1786;DHT22;890;48.158;11.540;2023-06-22T01:14:58;22.10;74.00
1786;DHT22;890;48.158;11.540;2023-06-22T01:17:28;22.10;74.20
1786;DHT22;890;48.158;11.540;2023-06-22T01:19:57;22.00;74.00
1786;DHT22;890;48.158;11.540;2023-06-22T01:22:30;22.00;74.30
1786;DHT22;890;48.158;11.540;2023-06-22T01:25:16;22.00;74.40
1786;DHT22;890;48.158;11.540;2023-06-22T01:28:03;21.90;74.50
1786;DHT22;890;48.158;11.540;2023-06-22T01:30:31;22.00;74.60
1786;DHT22;890;48.158;11.540;2023-06-22T01:33:01;21.90;74.40
1786;DHT22;890;48.158;11.540;2023-06-22T01:35:28;21.90;74.50
1786;DHT22;890;48.158;11.540;2023-06-22T01:37:55;21.90;74.40
1786;DHT22;890;48.158;11.540;2023-06-22T01:40:21;22.00;74.50
1786;DHT22;890;48.158;11.540;2023-06-22T01:42:48;21.90;74.50
1786;DHT22;890;48.158;11.540;2023-06-22T01:45:14;21.90;74.50
1786;DHT22;890;48.158;11.540;2023-06-22T01:47:41;21.90;74.50
1786;DHT22;890;48.158;11.540;2023-06-22T01:50:07;22.00;74.50
1786;DHT22;890;48.158;11.540;2023-06-22T01:52:33;22.00;74.50
1786;DHT22;890;48.158;11.540;2023-06-22T01:55:00;22.00;74.60
1786;DHT22;890;48.158;11.540;2023-06-22T01:57:26;22.00;74.50
1786;DHT22;890;48.158;11.540;2023-06-22T02:02:32;22.00;74.60
1786;DHT22;890;48.158;11.540;2023-06-22T02:05:05;22.20;74.90
1786;DHT22;890;48.158;11.540;2023-06-22T02:07:35;22.00;74.60
1786;DHT22;890;48.158;11.540;2023-06-22T02:10:03;22.00;74.70
1786;DHT22;890;48.158;11.540;2023-06-22T02:12:32;21.90;74.80
1786;DHT22;890;48.158;11.540;2023-06-22T02:14:59;22.00;75.00
1786;DHT22;890;48.158;11.540;2023-06-22T02:17:26;21.90;74.80
1786;DHT22;890;48.158;11.540;2023-06-22T02:19:52;21.80;74.90
1786;DHT22;890;48.158;11.540;2023-06-22T02:22:17;21.80;75.00
1786;DHT22;890;48.158;11.540;2023-06-22T02:24:43;21.80;75.10
1786;DHT22;890;48.158;11.540;2023-06-22T02:27:09;21.80;75.10
1786;DHT22;890;48.158;11.540;2023-06-22T02:29:36;22.00;75.30
1786;DHT22;890;48.158;11.540;2023-06-22T02:32:02;21.70;75.20
1786;DHT22;890;48.158;11.540;2023-06-22T02:34:27;21.70;75.20
1786;DHT22;890;48.158;11.540;2023-06-22T02:36:53;21.80;75.50
1786;DHT22;890;48.158;11.540;2023-06-22T02:39:22;21.60;75.30
1786;DHT22;890;48.158;11.540;2023-06-22T02:41:52;21.60;75.40
1786;DHT22;890;48.158;11.540;2023-06-22T02:44:18;21.70;75.40
1786;DHT22;890;48.158;11.540;2023-06-22T02:46:45;21.70;75.50
1786;DHT22;890;48.158;11.540;2023-06-22T02:49:11;21.60;75.60
1786;DHT22;890;48.158;11.540;2023-06-22T02:51:39;21.60;75.60
1786;DHT22;890;48.158;11.540;2023-06-22T02:54:06;21.70;75.70
1786;DHT22;890;48.158;11.540;2023-06-22T02:56:31;21.70;75.60
1786;DHT22;890;48.158;11.540;2023-06-22T02:58:57;21.70;75.60
1786;DHT22;890;48.158;11.540;2023-06-22T03:01:28;21.60;75.50
1786;DHT22;890;48.158;11.540;2023-06-22T03:03:56;21.60;75.50
1786;DHT22;890;48.158;11.540;2023-06-22T03:06:22;21.70;75.80
1786;DHT22;890;48.158;11.540;2023-06-22T03:08:58;21.50;75.90
1786;DHT22;890;48.158;11.540;2023-06-22T03:11:24;21.50;76.20
1786;DHT22;890;48.158;11.540;2023-06-22T03:13:50;21.40;76.20
1786;DHT22;890;48.158;11.540;2023-06-22T03:16:17;21.40;76.30
1786;DHT22;890;48.158;11.540;2023-06-22T03:18:43;21.30;76.30
1786;DHT22;890;48.158;11.540;2023-06-22T03:21:09;21.30;76.50
1786;DHT22;890;48.158;11.540;2023-06-22T03:23:34;21.30;76.60
1786;DHT22;890;48.158;11.540;2023-06-22T03:26:00;21.30;76.70
1786;DHT22;890;48.158;11.540;2023-06-22T03:28:25;21.30;76.70
1786;DHT22;890;48.158;11.540;2023-06-22T03:30:51;21.30;77.50
1786;DHT22;890;48.158;11.540;2023-06-22T03:33:16;21.30;76.80
1786;DHT22;890;48.158;11.540;2023-06-22T03:35:42;21.30;76.80
1786;DHT22;890;48.158;11.540;2023-06-22T03:38:08;21.20;76.80
1786;DHT22;890;48.158;11.540;2023-06-22T03:40:33;21.30;76.90
1786;DHT22;890;48.158;11.540;2023-06-22T03:42:59;21.30;77.60
1786;DHT22;890;48.158;11.540;2023-06-22T03:45:24;21.40;77.00
1786;DHT22;890;48.158;11.540;2023-06-22T03:47:50;21.30;77.00
1786;DHT22;890;48.158;11.540;2023-06-22T03:50:15;21.40;77.10
1786;DHT22;890;48.158;11.540;2023-06-22T03:52:41;21.40;77.20
1786;DHT22;890;48.158;11.540;2023-06-22T03:55:07;21.30;77.20
1786;DHT22;890;48.158;11.540;2023-06-22T03:57:33;21.40;77.40
1786;DHT22;890;48.158;11.540;2023-06-22T03:59:59;21.40;77.40
1786;DHT22;890;48.158;11.540;2023-06-22T04:02:25;21.40;77.40
1786;DHT22;890;48.158;11.540;2023-06-22T04:04:51;21.50;77.60
1786;DHT22;890;48.158;11.540;2023-06-22T04:07:16;21.40;77.50
1786;DHT22;890;48.158;11.540;2023-06-22T04:09:43;21.40;77.70
1786;DHT22;890;48.158;11.540;2023-06-22T04:12:09;21.40;77.70
1786;DHT22;890;48.158;11.540;2023-06-22T04:14:34;21.40;77.90
1786;DHT22;890;48.158;11.540;2023-06-22T04:17:01;21.40;78.00
1786;DHT22;890;48.158;11.540;2023-06-22T04:19:26;21.40;78.00
1786;DHT22;890;48.158;11.540;2023-06-22T04:21:52;21.40;78.10
1786;DHT22;890;48.158;11.540;2023-06-22T04:24:17;21.40;78.10
1786;DHT22;890;48.158;11.540;2023-06-22T04:26:43;21.50;78.20
1786;DHT22;890;48.158;11.540;2023-06-22T04:29:11;21.80;78.50
1786;DHT22;890;48.158;11.540;2023-06-22T04:31:37;21.70;78.40
1786;DHT22;890;48.158;11.540;2023-06-22T04:34:04;21.70;79.00
1786;DHT22;890;48.158;11.540;2023-06-22T04:36:37;21.60;79.00
1786;DHT22;890;48.158;11.540;2023-06-22T04:39:10;21.60;78.40
1786;DHT22;890;48.158;11.540;2023-06-22T04:41:40;21.60;78.40
1786;DHT22;890;48.158;11.540;2023-06-22T04:44:13;21.60;78.40
1786;DHT22;890;48.158;11.540;2023-06-22T04:46:39;21.60;78.40
1786;DHT22;890;48.158;11.540;2023-06-22T04:49:06;21.70;78.60
1786;DHT22;890;48.158;11.540;2023-06-22T04:51:37;21.70;78.70
1786;DHT22;890;48.158;11.540;2023-06-22T04:54:03;21.80;78.70
1786;DHT22;890;48.158;11.540;2023-06-22T04:56:31;21.80;78.70
1786;DHT22;890;48.158;11.540;2023-06-22T04:58:57;21.80;78.60
1786;DHT22;890;48.158;11.540;2023-06-22T05:01:23;21.90;78.60
1786;DHT22;890;48.158;11.540;2023-06-22T05:03:49;22.00;78.70
1786;DHT22;890;48.158;11.540;2023-06-22T05:06:15;22.00;78.70
1786;DHT22;890;48.158;11.540;2023-06-22T05:08:41;22.10;78.70
1786;DHT22;890;48.158;11.540;2023-06-22T05:11:06;22.10;78.50
1786;DHT22;890;48.158;11.540;2023-06-22T05:13:32;22.20;78.60
1786;DHT22;890;48.158;11.540;2023-06-22T05:15:58;22.40;78.90
1786;DHT22;890;48.158;11.540;2023-06-22T05:18:30;22.30;78.50
1786;DHT22;890;48.158;11.540;2023-06-22T05:20:57;22.40;78.70
1786;DHT22;890;48.158;11.540;2023-06-22T05:23:23;22.50;78.80
1786;DHT22;890;48.158;11.540;2023-06-22T05:25:48;22.60;78.80
1786;DHT22;890;48.158;11.540;2023-06-22T05:28:14;22.70;78.70
1786;DHT22;890;48.158;11.540;2023-06-22T05:30:40;22.80;78.60
1786;DHT22;890;48.158;11.540;2023-06-22T05:33:06;23.00;78.60
1786;DHT22;890;48.158;11.540;2023-06-22T05:35:32;23.10;78.60
1786;DHT22;890;48.158;11.540;2023-06-22T05:37:57;23.00;78.20
1786;DHT22;890;48.158;11.540;2023-06-22T05:40:23;23.20;78.40
1786;DHT22;890;48.158;11.540;2023-06-22T05:42:48;23.30;78.30
1786;DHT22;890;48.158;11.540;2023-06-22T05:45:14;23.40;78.10
1786;DHT22;890;48.158;11.540;2023-06-22T05:47:40;23.30;77.50
1786;DHT22;890;48.158;11.540;2023-06-22T05:50:06;23.40;77.80
1786;DHT22;890;48.158;11.540;2023-06-22T05:52:33;23.50;78.10
1786;DHT22;890;48.158;11.540;2023-06-22T05:54:59;23.70;77.90
1786;DHT22;890;48.158;11.540;2023-06-22T05:57:25;23.70;77.20
1786;DHT22;890;48.158;11.540;2023-06-22T05:59:50;23.70;77.30
1786;DHT22;890;48.158;11.540;2023-06-22T06:02:17;23.80;77.20
1786;DHT22;890;48.158;11.540;2023-06-22T06:04:42;23.90;77.20
1786;DHT22;890;48.158;11.540;2023-06-22T06:07:08;24.10;77.10
1786;DHT22;890;48.158;11.540;2023-06-22T06:09:33;24.10;76.60
1786;DHT22;890;48.158;11.540;2023-06-22T06:12:00;24.10;76.60
1786;DHT22;890;48.158;11.540;2023-06-22T06:14:28;24.10;76.50
1786;DHT22;890;48.158;11.540;2023-06-22T06:16:53;24.10;76.60
1786;DHT22;890;48.158;11.540;2023-06-22T06:19:19;24.30;76.90
1786;DHT22;890;48.158;11.540;2023-06-22T06:21:45;24.40;76.40
1786;DHT22;890;48.158;11.540;2023-06-22T06:24:12;24.50;76.10
1786;DHT22;890;48.158;11.540;2023-06-22T06:26:37;24.70;76.40
1786;DHT22;890;48.158;11.540;2023-06-22T06:29:03;24.80;75.90
1786;DHT22;890;48.158;11.540;2023-06-22T06:31:29;24.90;75.80
1786;DHT22;890;48.158;11.540;2023-06-22T06:33:55;24.90;75.30
1786;DHT22;890;48.158;11.540;2023-06-22T06:36:21;24.90;75.40
1786;DHT22;890;48.158;11.540;2023-06-22T06:38:46;25.10;75.40
1786;DHT22;890;48.158;11.540;2023-06-22T06:41:14;25.20;74.90
1786;DHT22;890;48.158;11.540;2023-06-22T06:43:40;25.20;74.50
1786;DHT22;890;48.158;11.540;2023-06-22T06:46:05;25.30;74.70
1786;DHT22;890;48.158;11.540;2023-06-22T06:48:31;25.50;74.70
1786;DHT22;890;48.158;11.540;2023-06-22T06:50:57;25.70;74.50
1786;DHT22;890;48.158;11.540;2023-06-22T06:53:22;25.80;73.80
1786;DHT22;890;48.158;11.540;2023-06-22T06:55:48;25.80;73.30
1786;DHT22;890;48.158;11.540;2023-06-22T06:58:13;25.80;72.70
1786;DHT22;890;48.158;11.540;2023-06-22T07:00:40;26.00;72.80
1786;DHT22;890;48.158;11.540;2023-06-22T07:03:05;25.90;73.00
1786;DHT22;890;48.158;11.540;2023-06-22T07:05:32;26.00;72.30
1786;DHT22;890;48.158;11.540;2023-06-22T07:07:58;26.20;72.30
1786;DHT22;890;48.158;11.540;2023-06-22T07:10:23;26.20;72.00
1786;DHT22;890;48.158;11.540;2023-06-22T07:12:49;26.30;71.80
1786;DHT22;890;48.158;11.540;2023-06-22T07:15:14;26.40;71.60
1786;DHT22;890;48.158;11.540;2023-06-22T07:17:40;26.40;71.10
1786;DHT22;890;48.158;11.540;2023-06-22T07:20:06;26.50;71.10
1786;DHT22;890;48.158;11.540;2023-06-22T07:22:37;26.70;70.80
1786;DHT22;890;48.158;11.540;2023-06-22T07:25:03;26.80;71.40
1786;DHT22;890;48.158;11.540;2023-06-22T07:27:36;26.90;70.40
1786;DHT22;890;48.158;11.540;2023-06-22T07:30:03;27.10;70.10
1786;DHT22;890;48.158;11.540;2023-06-22T07:32:29;27.20;70.10
1786;DHT22;890;48.158;11.540;2023-06-22T07:34:54;27.30;69.50
1786;DHT22;890;48.158;11.540;2023-06-22T07:37:21;27.40;69.20
1786;DHT22;890;48.158;11.540;2023-06-22T07:39:46;27.40;68.80
1786;DHT22;890;48.158;11.540;2023-06-22T07:42:12;27.40;68.20
1786;DHT22;890;48.158;11.540;2023-06-22T07:44:37;27.30;68.10
1786;DHT22;890;48.158;11.540;2023-06-22T07:47:03;27.40;68.60
1786;DHT22;890;48.158;11.540;2023-06-22T07:49:29;27.50;68.00
1786;DHT22;890;48.158;11.540;2023-06-22T07:51:54;27.60;68.00
1786;DHT22;890;48.158;11.540;2023-06-22T07:54:20;27.70;67.90
1786;DHT22;890;48.158;11.540;2023-06-22T07:56:46;27.80;67.40
1786;DHT22;890;48.158;11.540;2023-06-22T07:59:12;27.90;66.70
1786;DHT22;890;48.158;11.540;2023-06-22T08:01:37;27.90;66.70
1786;DHT22;890;48.158;11.540;2023-06-22T08:04:03;28.00;66.40
1786;DHT22;890;48.158;11.540;2023-06-22T08:06:30;28.00;65.90
1786;DHT22;890;48.158;11.540;2023-06-22T08:08:56;28.10;65.70
1786;DHT22;890;48.158;11.540;2023-06-22T08:11:22;28.00;64.90
1786;DHT22;890;48.158;11.540;2023-06-22T08:13:50;28.00;65.00
1786;DHT22;890;48.158;11.540;2023-06-22T08:16:16;28.10;64.90
1786;DHT22;890;48.158;11.540;2023-06-22T08:18:41;28.10;64.80
1786;DHT22;890;48.158;11.540;2023-06-22T08:21:07;28.10;64.70
1786;DHT22;890;48.158;11.540;2023-06-22T08:23:32;28.20;64.40
1786;DHT22;890;48.158;11.540;2023-06-22T08:25:58;28.30;64.50
1786;DHT22;890;48.158;11.540;2023-06-22T08:28:23;28.60;64.70
1786;DHT22;890;48.158;11.540;2023-06-22T08:30:49;28.90;64.40
1786;DHT22;890;48.158;11.540;2023-06-22T08:33:14;29.00;63.40
1786;DHT22;890;48.158;11.540;2023-06-22T08:35:41;29.10;63.40
1786;DHT22;890;48.158;11.540;2023-06-22T08:38:07;29.20;62.70
1786;DHT22;890;48.158;11.540;2023-06-22T08:40:33;29.40;62.80
1786;DHT22;890;48.158;11.540;2023-06-22T08:42:58;29.60;62.50
1786;DHT22;890;48.158;11.540;2023-06-22T08:45:24;29.60;61.50
1786;DHT22;890;48.158;11.540;2023-06-22T08:47:50;29.50;60.90
1786;DHT22;890;48.158;11.540;2023-06-22T08:50:15;29.60;61.10
1786;DHT22;890;48.158;11.540;2023-06-22T08:52:41;29.70;61.10
1786;DHT22;890;48.158;11.540;2023-06-22T08:55:07;29.70;60.80
1786;DHT22;890;48.158;11.540;2023-06-22T08:57:33;29.80;60.80
1786;DHT22;890;48.158;11.540;2023-06-22T08:59:59;29.80;60.10
1786;DHT22;890;48.158;11.540;2023-06-22T09:02:25;29.80;59.70
1786;DHT22;890;48.158;11.540;2023-06-22T09:04:51;29.90;59.80
1786;DHT22;890;48.158;11.540;2023-06-22T09:07:21;29.90;59.90
1786;DHT22;890;48.158;11.540;2023-06-22T09:09:48;30.10;59.70
1786;DHT22;890;48.158;11.540;2023-06-22T09:12:14;30.20;59.30
1786;DHT22;890;48.158;11.540;2023-06-22T09:14:40;30.30;59.20
1786;DHT22;890;48.158;11.540;2023-06-22T09:17:06;30.40;59.00
1786;DHT22;890;48.158;11.540;2023-06-22T09:19:31;30.50;58.90
1786;DHT22;890;48.158;11.540;2023-06-22T09:21:57;30.50;58.20
1786;DHT22;890;48.158;11.540;2023-06-22T09:24:22;30.60;58.00
1786;DHT22;890;48.158;11.540;2023-06-22T09:26:48;30.60;57.80
1786;DHT22;890;48.158;11.540;2023-06-22T09:29:14;30.70;58.00
1786;DHT22;890;48.158;11.540;2023-06-22T09:31:39;30.80;57.60
1786;DHT22;890;48.158;11.540;2023-06-22T09:34:05;30.90;57.20
1786;DHT22;890;48.158;11.540;2023-06-22T09:36:30;31.00;57.10
1786;DHT22;890;48.158;11.540;2023-06-22T09:38:56;31.10;57.40
1786;DHT22;890;48.158;11.540;2023-06-22T09:41:24;31.20;56.90
1786;DHT22;890;48.158;11.540;2023-06-22T09:43:50;31.30;56.50
1786;DHT22;890;48.158;11.540;2023-06-22T09:46:16;30.50;56.00
1786;DHT22;890;48.158;11.540;2023-06-22T09:48:42;31.40;56.00
1786;DHT22;890;48.158;11.540;2023-06-22T09:51:08;31.70;55.90
1786;DHT22;890;48.158;11.540;2023-06-22T09:53:33;31.80;55.70
1786;DHT22;890;48.158;11.540;2023-06-22T09:56:00;31.90;55.40
1786;DHT22;890;48.158;11.540;2023-06-22T09:58:27;32.10;54.90
1786;DHT22;890;48.158;11.540;2023-06-22T10:00:53;32.30;54.30
1786;DHT22;890;48.158;11.540;2023-06-22T10:03:20;32.50;54.20
1786;DHT22;890;48.158;11.540;2023-06-22T10:05:45;32.60;54.20
1786;DHT22;890;48.158;11.540;2023-06-22T10:08:11;33.00;55.70
1786;DHT22;890;48.158;11.540;2023-06-22T10:10:37;33.50;56.70
1786;DHT22;890;48.158;11.540;2023-06-22T10:13:08;34.40;56.50
1786;DHT22;890;48.158;11.540;2023-06-22T10:15:35;35.20;54.80
1786;DHT22;890;48.158;11.540;2023-06-22T10:18:01;36.10;54.70
1786;DHT22;890;48.158;11.540;2023-06-22T10:20:26;36.60;53.90
1786;DHT22;890;48.158;11.540;2023-06-22T10:22:53;37.10;53.00
1786;DHT22;890;48.158;11.540;2023-06-22T10:25:19;37.30;51.80
1786;DHT22;890;48.158;11.540;2023-06-22T10:27:44;37.50;51.50
1786;DHT22;890;48.158;11.540;2023-06-22T10:30:12;37.90;50.90
1786;DHT22;890;48.158;11.540;2023-06-22T10:32:41;38.20;50.20
1786;DHT22;890;48.158;11.540;2023-06-22T10:35:08;38.40;50.40
1786;DHT22;890;48.158;11.540;2023-06-22T10:37:36;38.60;49.10
1786;DHT22;890;48.158;11.540;2023-06-22T10:40:02;38.90;48.50
1786;DHT22;890;48.158;11.540;2023-06-22T10:42:29;39.20;48.70
1786;DHT22;890;48.158;11.540;2023-06-22T10:44:54;39.40;47.30
1786;DHT22;890;48.158;11.540;2023-06-22T10:47:20;39.60;46.50
1786;DHT22;890;48.158;11.540;2023-06-22T10:49:46;39.60;46.90
1786;DHT22;890;48.158;11.540;2023-06-22T10:52:11;39.70;46.20
1786;DHT22;890;48.158;11.540;2023-06-22T10:54:37;39.90;45.60
1786;DHT22;890;48.158;11.540;2023-06-22T10:57:03;40.20;45.20
1786;DHT22;890;48.158;11.540;2023-06-22T10:59:29;40.50;44.60
1786;DHT22;890;48.158;11.540;2023-06-22T11:01:55;40.60;44.50
1786;DHT22;890;48.158;11.540;2023-06-22T11:04:21;40.90;43.60
1786;DHT22;890;48.158;11.540;2023-06-22T11:06:48;40.60;41.90
1786;DHT22;890;48.158;11.540;2023-06-22T11:09:14;39.90;41.20
1786;DHT22;890;48.158;11.540;2023-06-22T11:11:44;39.00;41.30
1786;DHT22;890;48.158;11.540;2023-06-22T11:14:10;38.20;41.90
1786;DHT22;890;48.158;11.540;2023-06-22T11:16:35;37.60;42.60
1786;DHT22;890;48.158;11.540;2023-06-22T11:19:01;37.40;43.40
1786;DHT22;890;48.158;11.540;2023-06-22T11:21:28;37.30;43.80
1786;DHT22;890;48.158;11.540;2023-06-22T11:23:54;37.30;44.00
1786;DHT22;890;48.158;11.540;2023-06-22T11:26:19;37.50;44.50
1786;DHT22;890;48.158;11.540;2023-06-22T11:28:46;37.60;43.80
1786;DHT22;890;48.158;11.540;2023-06-22T11:31:12;37.60;44.20
1786;DHT22;890;48.158;11.540;2023-06-22T11:33:38;38.00;44.80
1786;DHT22;890;48.158;11.540;2023-06-22T11:36:03;38.50;44.50
1786;DHT22;890;48.158;11.540;2023-06-22T11:38:29;39.00;44.20
1786;DHT22;890;48.158;11.540;2023-06-22T11:40:57;39.40;43.50
1786;DHT22;890;48.158;11.540;2023-06-22T11:43:23;39.70;43.20
1786;DHT22;890;48.158;11.540;2023-06-22T11:45:48;39.90;42.20
1786;DHT22;890;48.158;11.540;2023-06-22T11:48:14;40.10;42.00
1786;DHT22;890;48.158;11.540;2023-06-22T11:50:40;40.20;42.40
1786;DHT22;890;48.158;11.540;2023-06-22T11:53:05;40.40;41.90
1786;DHT22;890;48.158;11.540;2023-06-22T11:55:31;40.80;40.90
1786;DHT22;890;48.158;11.540;2023-06-22T11:57:57;41.00;40.30
1786;DHT22;890;48.158;11.540;2023-06-22T12:00:26;41.00;40.10
1786;DHT22;890;48.158;11.540;2023-06-22T12:02:51;41.00;40.20
1786;DHT22;890;48.158;11.540;2023-06-22T12:05:20;41.10;39.80
1786;DHT22;890;48.158;11.540;2023-06-22T12:07:46;41.30;39.30
1786;DHT22;890;48.158;11.540;2023-06-22T12:10:12;41.40;38.90
1786;DHT22;890;48.158;11.540;2023-06-22T12:12:38;41.00;38.40
1786;DHT22;890;48.158;11.540;2023-06-22T12:15:04;40.70;38.80
1786;DHT22;890;48.158;11.540;2023-06-22T12:17:30;40.80;39.00
1786;DHT22;890;48.158;11.540;2023-06-22T12:19:55;41.10;38.70
1786;DHT22;890;48.158;11.540;2023-06-22T12:22:21;41.20;38.60
1786;DHT22;890;48.158;11.540;2023-06-22T12:24:47;41.30;38.30
1786;DHT22;890;48.158;11.540;2023-06-22T12:27:12;41.40;38.00
1786;DHT22;890;48.158;11.540;2023-06-22T12:29:38;41.60;37.40
1786;DHT22;890;48.158;11.540;2023-06-22T12:32:04;41.50;37.30
1786;DHT22;890;48.158;11.540;2023-06-22T12:34:29;41.30;36.90
1786;DHT22;890;48.158;11.540;2023-06-22T12:36:55;40.60;37.00
1786;DHT22;890;48.158;11.540;2023-06-22T12:39:21;40.10;37.60
1786;DHT22;890;48.158;11.540;2023-06-22T12:41:46;39.80;38.00
1786;DHT22;890;48.158;11.540;2023-06-22T12:44:12;39.50;38.20
1786;DHT22;890;48.158;11.540;2023-06-22T12:46:38;39.20;38.40
1786;DHT22;890;48.158;11.540;2023-06-22T12:49:04;38.90;38.70
1786;DHT22;890;48.158;11.540;2023-06-22T12:51:30;38.50;39.10
1786;DHT22;890;48.158;11.540;2023-06-22T12:53:56;38.20;39.60
1786;DHT22;890;48.158;11.540;2023-06-22T12:56:21;38.00;40.00
1786;DHT22;890;48.158;11.540;2023-06-22T12:58:47;37.80;40.30
1786;DHT22;890;48.158;11.540;2023-06-22T13:01:12;37.60;40.50
1786;DHT22;890;48.158;11.540;2023-06-22T13:03:38;37.40;40.70
1786;DHT22;890;48.158;11.540;2023-06-22T13:06:03;37.30;41.00
1786;DHT22;890;48.158;11.540;2023-06-22T13:08:29;37.20;41.20
1786;DHT22;890;48.158;11.540;2023-06-22T13:10:55;37.20;41.30
1786;DHT22;890;48.158;11.540;2023-06-22T13:13:25;37.30;41.30
1786;DHT22;890;48.158;11.540;2023-06-22T13:15:52;37.30;41.50
1786;DHT22;890;48.158;11.540;2023-06-22T13:18:18;37.20;41.80
1786;DHT22;890;48.158;11.540;2023-06-22T13:20:43;37.20;42.20
1786;DHT22;890;48.158;11.540;2023-06-22T13:23:11;37.10;41.70
1786;DHT22;890;48.158;11.540;2023-06-22T13:25:36;37.10;41.80
1786;DHT22;890;48.158;11.540;2023-06-22T13:28:02;36.90;41.90
1786;DHT22;890;48.158;11.540;2023-06-22T13:30:28;37.00;42.00
1786;DHT22;890;48.158;11.540;2023-06-22T13:32:53;36.80;41.90
1786;DHT22;890;48.158;11.540;2023-06-22T13:35:19;36.70;42.30
1786;DHT22;890;48.158;11.540;2023-06-22T13:37:45;36.70;42.30
1786;DHT22;890;48.158;11.540;2023-06-22T13:40:10;36.70;42.30
1786;DHT22;890;48.158;11.540;2023-06-22T13:42:36;36.60;42.20
1786;DHT22;890;48.158;11.540;2023-06-22T13:45:02;36.50;42.40
1786;DHT22;890;48.158;11.540;2023-06-22T13:47:28;36.50;42.50
1786;DHT22;890;48.158;11.540;2023-06-22T13:49:54;36.40;42.60
1786;DHT22;890;48.158;11.540;2023-06-22T13:52:20;36.30;42.90
1786;DHT22;890;48.158;11.540;2023-06-22T13:54:45;36.00;42.90
1786;DHT22;890;48.158;11.540;2023-06-22T13:57:11;36.00;43.10
1786;DHT22;890;48.158;11.540;2023-06-22T13:59:36;35.90;43.30
1786;DHT22;890;48.158;11.540;2023-06-22T14:02:02;35.90;43.40
1786;DHT22;890;48.158;11.540;2023-06-22T14:04:27;35.90;43.50
1786;DHT22;890;48.158;11.540;2023-06-22T14:06:54;35.70;43.50
1786;DHT22;890;48.158;11.540;2023-06-22T14:09:21;35.70;43.80
1786;DHT22;890;48.158;11.540;2023-06-22T14:11:46;35.60;44.00
1786;DHT22;890;48.158;11.540;2023-06-22T14:14:12;35.60;44.00
1786;DHT22;890;48.158;11.540;2023-06-22T14:16:38;35.50;44.00
1786;DHT22;890;48.158;11.540;2023-06-22T14:19:03;35.40;43.90
1786;DHT22;890;48.158;11.540;2023-06-22T14:21:29;35.40;43.90
1786;DHT22;890;48.158;11.540;2023-06-22T14:23:54;35.30;43.90
1786;DHT22;890;48.158;11.540;2023-06-22T14:26:20;35.40;44.10
1786;DHT22;890;48.158;11.540;2023-06-22T14:28:46;35.40;43.80
1786;DHT22;890;48.158;11.540;2023-06-22T14:31:17;35.60;43.90
1786;DHT22;890;48.158;11.540;2023-06-22T14:33:48;35.50;43.90
1786;DHT22;890;48.158;11.540;2023-06-22T14:36:17;35.50;43.90
1786;DHT22;890;48.158;11.540;2023-06-22T14:38:43;35.50;43.70
1786;DHT22;890;48.158;11.540;2023-06-22T14:41:09;35.50;43.60
1786;DHT22;890;48.158;11.540;2023-06-22T14:43:34;35.40;43.70
1786;DHT22;890;48.158;11.540;2023-06-22T14:46:00;35.30;43.80
1786;DHT22;890;48.158;11.540;2023-06-22T14:48:26;35.30;43.70
1786;DHT22;890;48.158;11.540;2023-06-22T14:50:51;35.30;43.60
1786;DHT22;890;48.158;11.540;2023-06-22T14:53:17;35.20;43.70
1786;DHT22;890;48.158;11.540;2023-06-22T14:55:42;35.30;43.80
1786;DHT22;890;48.158;11.540;2023-06-22T14:58:09;35.20;43.10
1786;DHT22;890;48.158;11.540;2023-06-22T15:00:35;35.30;42.70
1786;DHT22;890;48.158;11.540;2023-06-22T15:03:00;35.40;42.80
1786;DHT22;890;48.158;11.540;2023-06-22T15:05:26;35.50;42.70
1786;DHT22;890;48.158;11.540;2023-06-22T15:07:52;35.50;42.40
1786;DHT22;890;48.158;11.540;2023-06-22T15:10:17;35.60;42.30
1786;DHT22;890;48.158;11.540;2023-06-22T15:12:43;35.50;42.20
1786;DHT22;890;48.158;11.540;2023-06-22T15:15:09;35.40;42.10
1786;DHT22;890;48.158;11.540;2023-06-22T15:17:35;35.40;42.20
1786;DHT22;890;48.158;11.540;2023-06-22T15:20:01;35.40;42.10
1786;DHT22;890;48.158;11.540;2023-06-22T15:22:28;35.40;41.70
1786;DHT22;890;48.158;11.540;2023-06-22T15:24:54;35.30;41.40
1786;DHT22;890;48.158;11.540;2023-06-22T15:27:23;35.30;41.30
1786;DHT22;890;48.158;11.540;2023-06-22T15:29:49;35.20;41.20
1786;DHT22;890;48.158;11.540;2023-06-22T15:32:14;35.10;41.10
1786;DHT22;890;48.158;11.540;2023-06-22T15:34:40;35.10;41.10
1786;DHT22;890;48.158;11.540;2023-06-22T15:37:06;35.20;41.00
1786;DHT22;890;48.158;11.540;2023-06-22T15:39:31;35.30;40.50
1786;DHT22;890;48.158;11.540;2023-06-22T15:41:57;35.50;40.10
1786;DHT22;890;48.158;11.540;2023-06-22T15:44:23;35.70;39.90
1786;DHT22;890;48.158;11.540;2023-06-22T15:46:48;35.70;39.70
1786;DHT22;890;48.158;11.540;2023-06-22T15:49:17;35.70;39.60
1786;DHT22;890;48.158;11.540;2023-06-22T15:51:44;35.70;39.90
1786;DHT22;890;48.158;11.540;2023-06-22T15:54:10;35.70;40.10
1786;DHT22;890;48.158;11.540;2023-06-22T15:56:35;35.70;40.30
1786;DHT22;890;48.158;11.540;2023-06-22T15:59:01;35.60;40.60
1786;DHT22;890;48.158;11.540;2023-06-22T16:01:27;35.60;40.80